createdAt,value
2019-05-19T00:00:29.438Z,18.55
2019-05-19T00:02:58.397Z,18.95
2019-05-19T00:05:27.309Z,19.65
2019-05-19T00:07:56.199Z,20.30
2019-05-19T00:10:25.159Z,17.70
2019-05-19T00:12:54.045Z,18.02
2019-05-19T00:15:22.999Z,21.27
2019-05-19T00:17:51.960Z,19.95
2019-05-19T00:20:20.801Z,18.27
2019-05-19T00:22:49.731Z,17.60
2019-05-19T00:25:18.638Z,19.77
2019-05-19T00:27:47.471Z,18.20
2019-05-19T00:30:16.403Z,22.82
2019-05-19T00:32:45.315Z,24.43
2019-05-19T00:35:14.200Z,23.95
2019-05-19T00:37:43.080Z,22.98
2019-05-19T00:40:12.054Z,29.65
2019-05-19T00:42:40.942Z,25.57
2019-05-19T00:45:10.134Z,25.02
2019-05-19T00:47:39.314Z,29.72
2019-05-19T00:50:08.900Z,24.87
2019-05-19T00:52:38.749Z,22.70
2019-05-19T00:55:08.005Z,25.02
2019-05-19T00:57:38.293Z,21.93
2019-05-19T01:00:08.890Z,22.13
2019-05-19T01:02:37.791Z,21.47
2019-05-19T01:05:08.115Z,20.82
2019-05-19T01:07:37.005Z,20.95
2019-05-19T01:10:07.710Z,21.87
2019-05-19T01:12:36.635Z,23.97
2019-05-19T01:15:09.079Z,23.90
2019-05-19T01:17:38.052Z,22.73
2019-05-19T01:20:10.443Z,24.18
2019-05-19T01:22:39.332Z,25.82
2019-05-19T01:25:09.191Z,23.00
2019-05-19T01:27:38.080Z,24.72
2019-05-19T01:30:11.093Z,22.37
2019-05-19T01:32:40.064Z,23.73
2019-05-19T01:35:09.290Z,23.55
2019-05-19T01:37:38.166Z,22.70
2019-05-19T01:40:07.904Z,23.75
2019-05-19T01:42:36.831Z,23.92
2019-05-19T01:45:07.866Z,26.27
2019-05-19T01:47:36.790Z,25.55
2019-05-19T01:50:17.638Z,24.32
2019-05-19T01:52:38.206Z,23.73
2019-05-19T01:55:07.365Z,22.80
2019-05-19T01:57:36.152Z,23.60
2019-05-19T02:00:08.781Z,23.60
2019-05-19T02:02:37.701Z,23.87
2019-05-19T02:05:07.316Z,23.15
2019-05-19T02:07:36.296Z,23.98
2019-05-19T02:10:09.859Z,26.68
2019-05-19T02:12:38.812Z,22.95
2019-05-19T02:15:08.379Z,27.13
2019-05-19T02:17:37.318Z,24.23
2019-05-19T02:20:07.352Z,26.15
2019-05-19T02:22:36.359Z,24.35
2019-05-19T02:25:06.099Z,23.77
2019-05-19T02:27:34.942Z,23.87
2019-05-19T02:30:05.407Z,26.85
2019-05-19T02:32:34.271Z,24.37
2019-05-19T02:35:03.601Z,25.40
2019-05-19T02:37:32.527Z,28.42
2019-05-19T02:40:01.440Z,26.42
2019-05-19T02:42:31.699Z,27.07
2019-05-19T02:45:02.255Z,24.40
2019-05-19T02:47:31.743Z,24.45
2019-05-19T02:50:01.743Z,25.02
2019-05-19T02:52:32.414Z,26.07
2019-05-19T02:55:02.763Z,28.43
2019-05-19T02:57:33.245Z,27.02
2019-05-19T03:00:02.788Z,25.35
2019-05-19T03:02:31.613Z,24.05
2019-05-19T03:05:00.494Z,27.77
2019-05-19T03:07:29.465Z,26.07
2019-05-19T03:09:58.340Z,25.40
2019-05-19T03:12:27.191Z,25.52
2019-05-19T03:14:56.194Z,22.90
2019-05-19T03:17:25.032Z,22.95
2019-05-19T03:19:54.036Z,24.20
2019-05-19T03:22:23.022Z,21.42
2019-05-19T03:24:51.905Z,25.40
2019-05-19T03:27:20.750Z,25.12
2019-05-19T03:29:51.303Z,24.65
2019-05-19T03:32:30.452Z,26.17
2019-05-19T03:34:59.418Z,26.52
2019-05-19T03:37:28.307Z,26.55
2019-05-19T03:39:57.187Z,20.55
2019-05-19T03:42:26.152Z,23.73
2019-05-19T03:44:55.029Z,25.05
2019-05-19T03:47:23.949Z,23.55
2019-05-19T03:49:52.879Z,26.00
2019-05-19T03:52:21.768Z,22.87
2019-05-19T03:54:50.642Z,24.67
2019-05-19T03:57:19.566Z,25.68
2019-05-19T03:59:48.489Z,25.80
2019-05-19T04:02:17.401Z,27.32
2019-05-19T04:04:46.282Z,26.97
2019-05-19T04:07:15.178Z,24.30
2019-05-19T04:09:44.134Z,30.65
2019-05-19T04:12:13.077Z,31.10
2019-05-19T04:14:41.953Z,26.15
2019-05-19T04:17:10.869Z,22.75
2019-05-19T04:19:39.769Z,25.72
2019-05-19T04:22:08.653Z,25.57
2019-05-19T04:24:40.589Z,25.65
2019-05-19T04:27:09.487Z,25.00
2019-05-19T04:29:39.506Z,23.30
2019-05-19T04:32:08.619Z,26.68
2019-05-19T04:34:37.542Z,16.70
2019-05-19T04:37:06.544Z,18.55
2019-05-19T04:39:35.436Z,26.23
2019-05-19T04:42:04.286Z,27.55
2019-05-19T04:44:33.248Z,33.90
2019-05-19T04:47:02.093Z,38.85
2019-05-19T04:49:30.976Z,36.68
2019-05-19T04:52:06.496Z,36.53
2019-05-19T04:54:30.490Z,39.48
2019-05-19T04:56:59.377Z,35.10
2019-05-19T04:59:28.272Z,40.85
2019-05-19T05:01:57.177Z,41.02
2019-05-19T05:04:29.409Z,40.75
2019-05-19T05:06:56.726Z,40.33
2019-05-19T05:09:25.617Z,36.50
2019-05-19T05:11:54.535Z,37.15
2019-05-19T05:14:23.501Z,40.23
2019-05-19T05:16:52.454Z,37.50
2019-05-19T05:19:21.322Z,33.80
2019-05-19T05:21:50.312Z,33.53
2019-05-19T05:24:19.170Z,37.03
2019-05-19T05:26:48.105Z,32.93
2019-05-19T05:29:17.072Z,33.58
2019-05-19T05:31:45.957Z,30.62
2019-05-19T05:34:14.836Z,33.50
2019-05-19T05:36:43.743Z,31.33
2019-05-19T05:39:12.592Z,36.65
2019-05-19T05:41:41.444Z,32.20
2019-05-19T05:44:10.436Z,30.23
2019-05-19T05:46:39.289Z,27.55
2019-05-19T05:49:08.137Z,27.35
2019-05-19T05:51:37.116Z,28.02
2019-05-19T05:54:06.009Z,29.50
2019-05-19T05:56:34.897Z,26.70
2019-05-19T05:59:03.902Z,23.42
2019-05-19T06:01:32.821Z,29.45
2019-05-19T06:04:01.751Z,30.65
2019-05-19T06:06:30.660Z,25.90
2019-05-19T06:08:59.614Z,23.83
2019-05-19T06:11:28.458Z,25.77
2019-05-19T06:13:57.358Z,26.05
2019-05-19T06:16:26.272Z,24.47
2019-05-19T06:18:56.765Z,28.98
2019-05-19T06:21:26.341Z,22.98
2019-05-19T06:23:55.245Z,21.93
2019-05-19T06:26:24.099Z,24.15
2019-05-19T06:28:53.038Z,21.80
2019-05-19T06:31:21.921Z,20.45
2019-05-19T06:33:50.864Z,25.50
2019-05-19T06:36:19.794Z,23.15
2019-05-19T06:38:48.639Z,23.55
2019-05-19T06:41:17.572Z,24.25
2019-05-19T06:43:46.439Z,25.75
2019-05-19T06:46:15.254Z,23.57
2019-05-19T06:48:44.163Z,24.75
2019-05-19T06:51:13.121Z,23.77
2019-05-19T06:53:42.048Z,21.50
2019-05-19T06:56:10.908Z,20.68
2019-05-19T06:58:39.897Z,21.68
2019-05-19T07:01:08.770Z,18.40
2019-05-19T07:03:37.646Z,21.15
2019-05-19T07:06:06.598Z,19.90
2019-05-19T07:08:35.496Z,21.37
2019-05-19T07:11:04.376Z,20.75
2019-05-19T07:13:33.329Z,20.82
2019-05-19T07:16:02.218Z,21.77
2019-05-19T07:18:31.101Z,18.45
2019-05-19T07:21:00.057Z,18.27
2019-05-19T07:23:29.076Z,17.57
2019-05-19T07:25:57.941Z,17.00
2019-05-19T07:28:26.886Z,18.10
2019-05-19T07:30:55.776Z,17.40
2019-05-19T07:33:24.709Z,17.32
2019-05-19T07:35:53.671Z,18.45
2019-05-19T07:38:22.519Z,20.40
2019-05-19T07:40:51.438Z,19.40
2019-05-19T07:43:20.449Z,16.90
2019-05-19T07:45:49.239Z,16.57
2019-05-19T07:48:18.093Z,17.62
2019-05-19T07:50:47.025Z,15.43
2019-05-19T07:53:15.925Z,16.32
2019-05-19T07:55:44.813Z,15.90
2019-05-19T07:58:13.708Z,16.30
2019-05-19T08:00:42.591Z,15.18
2019-05-19T08:03:11.578Z,18.23
2019-05-19T08:05:40.432Z,15.20
2019-05-19T08:08:09.367Z,15.98
2019-05-19T08:10:38.366Z,15.10
2019-05-19T08:13:07.252Z,16.23
2019-05-19T08:15:36.141Z,16.12
2019-05-19T08:18:05.056Z,16.37
2019-05-19T08:20:33.944Z,15.93
2019-05-19T08:23:02.929Z,16.30
2019-05-19T08:25:31.866Z,15.10
2019-05-19T08:28:08.525Z,16.02
2019-05-19T08:30:31.487Z,16.15
2019-05-19T08:33:00.375Z,14.95
2019-05-19T08:35:29.306Z,14.18
2019-05-19T08:37:58.273Z,15.30
2019-05-19T08:40:27.124Z,15.83
2019-05-19T08:42:55.973Z,16.30
2019-05-19T08:45:24.973Z,13.75
2019-05-19T08:47:53.831Z,15.32
2019-05-19T08:50:22.708Z,14.98
2019-05-19T08:52:51.626Z,12.35
2019-05-19T08:55:20.546Z,12.58
2019-05-19T08:57:49.388Z,13.62
2019-05-19T09:00:18.385Z,17.37
2019-05-19T09:02:47.277Z,14.30
2019-05-19T09:05:16.129Z,16.30
2019-05-19T09:07:45.080Z,13.32
2019-05-19T09:10:15.070Z,13.68
2019-05-19T09:12:44.001Z,14.93
2019-05-19T09:15:13.116Z,13.45
2019-05-19T09:17:41.997Z,12.37
2019-05-19T09:20:11.274Z,12.58
2019-05-19T09:22:40.234Z,11.50
2019-05-19T09:25:09.621Z,13.60
2019-05-19T09:27:38.626Z,11.60
2019-05-19T09:30:10.133Z,11.65
2019-05-19T09:32:38.981Z,11.40
2019-05-19T09:35:08.274Z,12.50
2019-05-19T09:37:37.211Z,12.98
2019-05-19T09:40:07.805Z,12.18
2019-05-19T09:42:36.760Z,11.80
2019-05-19T09:45:09.359Z,10.70
2019-05-19T09:47:38.321Z,10.82
2019-05-19T09:50:08.224Z,9.98
2019-05-19T09:52:37.217Z,9.65
2019-05-19T09:55:07.033Z,9.98
2019-05-19T09:57:36.058Z,9.70
2019-05-19T10:00:07.356Z,8.60
2019-05-19T10:05:05.724Z,8.55
2019-05-19T10:07:34.565Z,8.78
2019-05-19T10:10:08.342Z,11.78
2019-05-19T10:12:37.242Z,8.55
2019-05-19T10:15:07.234Z,8.70
2019-05-19T10:17:36.114Z,8.85
2019-05-19T10:20:07.599Z,9.00
2019-05-19T10:22:36.401Z,8.73
2019-05-19T10:25:20.820Z,8.98
2019-05-19T10:27:38.244Z,9.15
2019-05-19T10:30:08.542Z,8.98
2019-05-19T10:32:37.510Z,10.03
2019-05-19T10:35:06.598Z,9.30
2019-05-19T10:37:35.478Z,10.50
2019-05-19T10:40:08.284Z,9.08
2019-05-19T10:42:37.139Z,8.90
2019-05-19T10:45:10.276Z,9.95
2019-05-19T10:47:39.197Z,8.63
2019-05-19T10:50:08.376Z,9.80
2019-05-19T10:52:37.334Z,8.60
2019-05-19T10:55:07.317Z,8.83
2019-05-19T10:57:36.199Z,9.68
2019-05-19T11:00:07.250Z,8.58
2019-05-19T11:02:36.170Z,8.88
2019-05-19T11:05:06.670Z,8.23
2019-05-19T11:07:35.614Z,9.35
2019-05-19T11:10:06.626Z,8.13
2019-05-19T11:12:35.487Z,8.35
2019-05-19T11:15:07.533Z,7.78
2019-05-19T11:17:36.365Z,6.87
2019-05-19T11:20:06.466Z,6.70
2019-05-19T11:22:35.435Z,8.75
2019-05-19T11:25:04.741Z,7.78
2019-05-19T11:27:33.584Z,8.73
2019-05-19T11:30:02.535Z,8.23
2019-05-19T11:32:31.450Z,9.55
2019-05-19T11:35:00.252Z,8.40
2019-05-19T11:37:29.178Z,9.35
2019-05-19T11:39:58.058Z,10.53
2019-05-19T11:42:26.984Z,7.62
2019-05-19T11:44:55.896Z,8.30
2019-05-19T11:47:24.743Z,7.40
2019-05-19T11:49:53.643Z,8.25
2019-05-19T11:52:22.557Z,8.08
2019-05-19T11:54:51.412Z,7.45
2019-05-19T11:57:20.366Z,8.43
2019-05-19T11:59:49.322Z,8.20
2019-05-19T12:02:18.159Z,7.80
2019-05-19T12:04:47.133Z,7.67
2019-05-19T12:07:16.008Z,7.42
2019-05-19T12:09:44.886Z,8.55
2019-05-19T12:12:13.798Z,7.25
2019-05-19T12:14:42.683Z,7.05
2019-05-19T12:17:11.742Z,7.80
2019-05-19T12:19:40.618Z,6.97
2019-05-19T12:22:09.543Z,6.67
2019-05-19T12:24:38.498Z,7.53
2019-05-19T12:27:07.383Z,7.30
2019-05-19T12:29:36.210Z,6.47
2019-05-19T12:32:05.160Z,8.20
2019-05-19T12:34:34.037Z,5.97
2019-05-19T12:37:02.894Z,6.72
2019-05-19T12:39:31.824Z,6.70
2019-05-19T12:42:00.689Z,5.95
2019-05-19T12:44:29.568Z,5.83
2019-05-19T12:46:58.514Z,5.90
2019-05-19T12:49:27.356Z,6.15
2019-05-19T12:51:56.301Z,7.05
2019-05-19T12:54:25.236Z,6.50
2019-05-19T12:56:54.062Z,5.87
2019-05-19T12:59:22.976Z,6.42
2019-05-19T13:01:51.930Z,6.05
2019-05-19T13:04:20.917Z,5.65
2019-05-19T13:06:49.786Z,7.35
2019-05-19T13:09:18.720Z,6.20
2019-05-19T13:11:47.614Z,6.72
2019-05-19T13:14:16.525Z,6.85
2019-05-19T13:16:45.437Z,6.92
2019-05-19T13:19:14.274Z,6.62
2019-05-19T13:21:43.223Z,7.10
2019-05-19T13:24:12.103Z,7.87
2019-05-19T13:26:55.625Z,7.35
2019-05-19T13:29:11.529Z,7.92
2019-05-19T13:31:54.493Z,6.55
2019-05-19T13:34:48.098Z,12.33
2019-05-19T13:37:33.425Z,8.05
2019-05-19T13:40:24.751Z,7.70
2019-05-19T13:43:16.033Z,7.83
2019-05-19T13:46:02.716Z,7.35
2019-05-19T13:48:49.690Z,6.62
2019-05-19T13:51:40.586Z,6.65
2019-05-19T13:54:34.888Z,6.25
2019-05-19T13:57:25.843Z,6.35
2019-05-19T14:00:13.682Z,5.50
2019-05-19T14:03:07.815Z,7.05
2019-05-19T14:05:57.691Z,6.92
2019-05-19T14:08:48.014Z,7.03
2019-05-19T14:11:37.539Z,8.35
2019-05-19T14:14:28.826Z,7.58
2019-05-19T14:17:14.941Z,6.70
2019-05-19T14:20:03.037Z,6.50
2019-05-19T14:22:44.947Z,6.87
2019-05-19T14:25:36.098Z,6.95
2019-05-19T14:28:23.123Z,5.95
2019-05-19T14:31:08.160Z,6.40
2019-05-19T14:33:49.076Z,7.20
2019-05-19T14:36:41.268Z,12.40
2019-05-19T14:39:28.513Z,6.87
2019-05-19T14:42:14.586Z,7.08
2019-05-19T14:45:06.590Z,7.62
2019-05-19T14:47:56.640Z,7.55
2019-05-19T14:50:48.148Z,6.72
2019-05-19T14:53:36.332Z,7.20
2019-05-19T14:56:11.699Z,7.08
2019-05-19T14:58:40.520Z,8.18
2019-05-19T15:01:09.353Z,7.25
2019-05-19T15:03:38.301Z,7.65
2019-05-19T15:06:07.136Z,8.23
2019-05-19T15:08:35.984Z,8.60
2019-05-19T15:11:04.921Z,8.08
2019-05-19T15:13:33.765Z,9.20
2019-05-19T15:16:02.707Z,8.43
2019-05-19T15:18:31.642Z,8.33
2019-05-19T15:21:00.484Z,8.53
2019-05-19T15:23:29.439Z,8.63
2019-05-19T15:25:58.437Z,8.00
2019-05-19T15:28:27.275Z,8.05
2019-05-19T15:30:56.219Z,7.78
2019-05-19T15:33:25.190Z,8.35
2019-05-19T15:35:54.320Z,9.08
2019-05-19T15:38:23.271Z,8.30
2019-05-19T15:40:56.463Z,10.25
2019-05-19T15:43:25.430Z,7.50
2019-05-19T15:45:54.376Z,12.85
2019-05-19T15:48:23.215Z,7.62
2019-05-19T15:50:52.126Z,7.80
2019-05-19T15:53:21.084Z,6.78
2019-05-19T15:55:49.932Z,9.70
2019-05-19T15:58:18.932Z,10.35
2019-05-19T16:00:47.814Z,10.00
2019-05-19T16:03:16.671Z,12.40
2019-05-19T16:05:45.617Z,11.63
2019-05-19T16:08:14.558Z,6.62
2019-05-19T16:10:43.403Z,6.78
2019-05-19T16:13:12.407Z,8.93
2019-05-19T16:15:41.286Z,6.97
2019-05-19T16:18:10.118Z,7.05
2019-05-19T16:20:38.991Z,5.85
2019-05-19T16:23:07.879Z,6.37
2019-05-19T16:25:36.837Z,5.95
2019-05-19T16:28:05.831Z,6.17
2019-05-19T16:30:34.650Z,6.70
2019-05-19T16:33:03.558Z,6.35
2019-05-19T16:35:32.443Z,6.00
2019-05-19T16:38:01.361Z,7.20
2019-05-19T16:40:30.229Z,6.53
2019-05-19T16:43:02.309Z,6.33
2019-05-19T16:45:29.732Z,6.30
2019-05-19T16:47:58.913Z,6.55
2019-05-19T16:50:27.723Z,6.47
2019-05-19T16:52:56.733Z,6.10
2019-05-19T16:55:27.240Z,5.87
2019-05-19T16:57:56.017Z,7.37
2019-05-19T17:00:25.852Z,6.20
2019-05-19T17:02:54.712Z,5.92
2019-05-19T17:05:23.710Z,5.70
2019-05-19T17:07:52.619Z,6.62
2019-05-19T17:10:31.036Z,6.35
2019-05-19T17:13:12.446Z,5.75
2019-05-19T17:15:49.918Z,5.85
2019-05-19T17:18:16.376Z,5.58
2019-05-19T17:20:45.330Z,5.58
2019-05-19T17:23:14.210Z,7.30
2019-05-19T17:25:43.113Z,5.10
2019-05-19T17:28:12.001Z,5.12
2019-05-19T17:30:40.830Z,5.08
2019-05-19T17:33:09.825Z,5.33
2019-05-19T17:35:38.674Z,4.87
2019-05-19T17:38:09.482Z,5.22
2019-05-19T17:40:38.457Z,4.97
2019-05-19T17:43:07.294Z,5.22
2019-05-19T17:45:36.276Z,5.28
2019-05-19T17:48:10.084Z,7.12
2019-05-19T17:50:37.020Z,6.25
2019-05-19T17:53:05.900Z,5.33
2019-05-19T17:55:35.429Z,6.33
2019-05-19T17:58:04.667Z,4.70
2019-05-19T18:00:36.616Z,4.60
2019-05-19T18:03:06.493Z,4.92
2019-05-19T18:05:35.981Z,6.35
2019-05-19T18:08:05.256Z,5.55
2019-05-19T18:10:34.285Z,4.97
2019-05-19T18:13:03.239Z,4.92
2019-05-19T18:15:32.119Z,5.08
2019-05-19T18:18:00.964Z,5.03
2019-05-19T18:20:29.954Z,4.78
2019-05-19T18:22:58.841Z,4.65
2019-05-19T18:25:27.755Z,4.97
2019-05-19T18:27:57.528Z,4.83
2019-05-19T18:30:26.515Z,5.00
2019-05-19T18:32:55.405Z,4.45
2019-05-19T18:35:24.353Z,4.85
2019-05-19T18:37:53.238Z,5.33
2019-05-19T18:40:22.116Z,8.23
2019-05-19T18:42:51.105Z,5.03
2019-05-19T18:45:19.985Z,4.70
2019-05-19T18:47:48.833Z,5.00
2019-05-19T18:50:17.753Z,6.37
2019-05-19T18:52:46.592Z,5.70
2019-05-19T18:55:15.634Z,5.03
2019-05-19T18:57:44.506Z,4.78
2019-05-19T19:00:15.203Z,5.35
2019-05-19T19:02:44.033Z,5.08
2019-05-19T19:05:13.021Z,5.20
2019-05-19T19:07:49.738Z,4.87
2019-05-19T19:10:18.680Z,5.25
2019-05-19T19:12:47.945Z,6.37
2019-05-19T19:15:16.867Z,6.08
2019-05-19T19:17:45.804Z,6.37
2019-05-19T19:20:15.385Z,5.20
2019-05-19T19:22:44.278Z,5.28
2019-05-19T19:25:13.228Z,5.65
2019-05-19T19:27:42.149Z,7.12
2019-05-19T19:30:11.485Z,6.12
2019-05-19T19:32:40.368Z,5.97
2019-05-19T19:35:09.596Z,5.85
2019-05-19T19:37:38.536Z,5.87
2019-05-19T19:40:08.190Z,5.58
2019-05-19T19:42:37.139Z,8.10
2019-05-19T19:45:06.439Z,5.10
2019-05-19T19:47:35.275Z,6.10
2019-05-19T19:50:07.375Z,6.37
2019-05-19T19:52:36.317Z,6.30
2019-05-19T19:55:05.966Z,5.75
2019-05-19T19:57:34.799Z,6.22
2019-05-19T20:00:17.236Z,6.95
2019-05-19T20:02:34.473Z,7.95
2019-05-19T20:05:04.261Z,6.33
2019-05-19T20:07:33.096Z,6.00
2019-05-19T20:10:01.995Z,7.15
2019-05-19T20:12:30.996Z,6.40
2019-05-19T20:14:59.838Z,6.90
2019-05-19T20:17:28.776Z,5.85
2019-05-19T20:19:57.726Z,6.78
2019-05-19T20:22:26.600Z,5.83
2019-05-19T20:24:55.506Z,7.83
2019-05-19T20:27:24.457Z,6.45
2019-05-19T20:29:53.365Z,8.00
2019-05-19T20:32:22.256Z,7.47
2019-05-19T20:34:51.136Z,8.00
2019-05-19T20:37:20.053Z,8.70
2019-05-19T20:39:49.007Z,6.83
2019-05-19T20:42:17.847Z,7.10
2019-05-19T20:44:46.774Z,7.03
2019-05-19T20:47:15.707Z,6.65
2019-05-19T20:49:44.567Z,7.97
2019-05-19T20:52:13.449Z,8.50
2019-05-19T20:54:42.437Z,8.38
2019-05-19T20:57:11.374Z,6.55
2019-05-19T20:59:40.209Z,6.83
2019-05-19T21:02:09.103Z,8.10
2019-05-19T21:04:37.989Z,7.20
2019-05-19T21:07:07.877Z,9.08
2019-05-19T21:09:36.915Z,7.03
2019-05-19T21:12:05.796Z,8.80
2019-05-19T21:14:34.721Z,8.80
2019-05-19T21:17:03.700Z,7.72
2019-05-19T21:19:32.537Z,9.23
2019-05-19T21:22:01.413Z,8.15
2019-05-19T21:24:30.395Z,8.13
2019-05-19T21:26:59.240Z,7.08
2019-05-19T21:29:28.168Z,8.60
2019-05-19T21:31:57.192Z,8.08
2019-05-19T21:34:26.081Z,6.97
2019-05-19T21:36:54.928Z,7.83
2019-05-19T21:39:23.836Z,8.50
2019-05-19T21:41:52.767Z,7.10
2019-05-19T21:44:21.642Z,8.73
2019-05-19T21:46:50.618Z,7.90
2019-05-19T21:49:19.489Z,8.00
2019-05-19T21:51:48.411Z,8.63
2019-05-19T21:54:17.332Z,7.30
2019-05-19T21:56:46.243Z,7.65
2019-05-19T21:59:15.166Z,8.23
2019-05-19T22:01:44.089Z,8.90
2019-05-19T22:04:12.938Z,8.60
2019-05-19T22:06:43.467Z,8.30
2019-05-19T22:09:12.340Z,9.93
2019-05-19T22:11:41.222Z,9.00
2019-05-19T22:14:10.175Z,7.90
2019-05-19T22:16:39.028Z,8.65
2019-05-19T22:19:07.896Z,8.15
2019-05-19T22:21:36.799Z,8.13
2019-05-19T22:24:05.683Z,9.63
2019-05-19T22:26:34.625Z,8.43
2019-05-19T22:29:03.503Z,8.30
2019-05-19T22:31:36.824Z,10.95
2019-05-19T22:34:03.003Z,7.97
2019-05-19T22:36:31.899Z,9.88
2019-05-19T22:39:00.825Z,9.15
2019-05-19T22:41:29.768Z,8.83
2019-05-19T22:43:58.603Z,9.35
2019-05-19T22:46:27.440Z,8.38
2019-05-19T22:48:56.398Z,9.25
2019-05-19T22:51:25.327Z,8.28
2019-05-19T22:53:54.166Z,7.65
2019-05-19T22:56:23.112Z,10.08
2019-05-19T22:58:52.011Z,9.03
2019-05-19T23:01:20.910Z,9.35
2019-05-19T23:03:49.866Z,8.83
2019-05-19T23:06:18.706Z,9.83
2019-05-19T23:08:47.645Z,8.28
2019-05-19T23:11:16.519Z,9.10
2019-05-19T23:13:45.406Z,8.78
2019-05-19T23:16:14.411Z,10.32
2019-05-19T23:18:43.240Z,8.98
2019-05-19T23:21:12.112Z,9.15
2019-05-19T23:23:41.073Z,9.18
2019-05-19T23:26:09.966Z,8.88
2019-05-19T23:28:38.800Z,8.73
2019-05-19T23:31:07.717Z,9.23
2019-05-19T23:33:36.549Z,9.08
2019-05-19T23:36:05.448Z,10.80
2019-05-19T23:38:34.244Z,9.78
2019-05-19T23:41:03.176Z,10.63
2019-05-19T23:43:32.362Z,8.73
2019-05-19T23:46:01.264Z,10.93
2019-05-19T23:48:30.143Z,10.68
2019-05-19T23:50:59.074Z,10.65
2019-05-19T23:53:27.967Z,9.13
2019-05-19T23:55:56.940Z,9.58
2019-05-19T23:58:25.821Z,11.08
